createdAt,value
2018-03-21T00:02:03.511Z,72.43
2018-03-21T00:04:32.616Z,72.74
2018-03-21T00:07:01.737Z,72.27
2018-03-21T00:09:30.760Z,71.91
2018-03-21T00:11:59.879Z,72.39
2018-03-21T00:14:29.425Z,72.01
2018-03-21T00:16:58.514Z,71.12
2018-03-21T00:19:27.537Z,71.35
2018-03-21T00:21:56.595Z,71.00
2018-03-21T00:24:25.571Z,71.46
2018-03-21T00:26:54.517Z,71.86
2018-03-21T00:29:24.498Z,71.88
2018-03-21T00:31:53.624Z,72.49
2018-03-21T00:40:06.627Z,71.30
2018-03-21T00:42:37.252Z,71.59
2018-03-21T00:45:08.592Z,72.18
2018-03-21T00:47:39.268Z,72.15
2018-03-21T00:50:11.459Z,71.70
2018-03-21T00:52:42.321Z,72.05
2018-03-21T00:55:12.863Z,71.84
2018-03-21T00:57:43.558Z,72.82
2018-03-21T01:00:14.321Z,72.08
2018-03-21T01:02:45.011Z,72.10
2018-03-21T01:05:15.635Z,72.44
2018-03-21T01:07:50.636Z,72.69
2018-03-21T01:10:21.192Z,72.74
2018-03-21T01:12:51.837Z,73.37
2018-03-21T01:15:22.633Z,72.27
2018-03-21T01:17:53.208Z,72.75
2018-03-21T01:20:23.787Z,72.76
2018-03-21T01:22:54.368Z,72.14
2018-03-21T01:25:25.347Z,71.94
2018-03-21T01:27:56.862Z,72.09
2018-03-21T01:30:28.565Z,71.98
2018-03-21T01:32:59.182Z,71.66
2018-03-21T01:35:29.947Z,71.61
2018-03-21T01:38:00.743Z,71.95
2018-03-21T01:40:31.621Z,72.14
2018-03-21T01:43:02.382Z,71.94
2018-03-21T01:45:33.381Z,72.22
2018-03-21T01:48:04.220Z,72.21
2018-03-21T01:50:35.347Z,72.51
2018-03-21T01:53:12.442Z,72.70
2018-03-21T01:55:43.275Z,72.95
2018-03-21T01:58:14.059Z,73.20
2018-03-21T02:00:44.633Z,72.17
2018-03-21T02:03:15.376Z,72.53
2018-03-21T02:05:58.274Z,72.42
2018-03-21T02:09:12.663Z,72.32
2018-03-21T02:11:52.755Z,72.93
2018-03-21T02:14:25.447Z,72.91
2018-03-21T02:17:02.272Z,72.53
2018-03-21T02:19:41.751Z,72.34
2018-03-21T02:25:49.453Z,73.38
2018-03-21T02:28:19.981Z,73.47
2018-03-21T02:30:50.630Z,72.61
2018-03-21T02:33:21.308Z,72.76
2018-03-21T02:35:52.028Z,72.76
2018-03-21T02:38:22.647Z,72.82
2018-03-21T02:40:53.341Z,72.62
2018-03-21T02:43:24.028Z,72.25
2018-03-21T02:45:54.802Z,73.09
2018-03-21T02:48:25.425Z,73.24
2018-03-21T02:50:56.185Z,73.06
2018-03-21T02:53:26.841Z,72.45
2018-03-21T02:55:57.546Z,73.09
2018-03-21T02:58:28.609Z,72.69
2018-03-21T03:00:59.284Z,72.61
2018-03-21T03:03:29.900Z,71.87
2018-03-21T03:06:00.505Z,72.53
2018-03-21T03:08:31.253Z,72.20
2018-03-21T03:11:01.918Z,72.11
2018-03-21T03:13:32.674Z,72.44
2018-03-21T03:16:03.425Z,72.46
2018-03-21T03:18:34.219Z,72.54
2018-03-21T03:21:04.998Z,72.96
2018-03-21T03:23:36.103Z,73.54
2018-03-21T03:26:07.204Z,73.21
2018-03-21T03:28:37.888Z,73.14
2018-03-21T03:31:08.625Z,72.45
2018-03-21T03:33:39.384Z,72.67
2018-03-21T03:36:10.101Z,72.76
2018-03-21T03:38:40.726Z,72.87
2018-03-21T03:41:11.701Z,72.64
2018-03-21T03:43:42.250Z,72.86
2018-03-21T03:46:18.096Z,73.12
2018-03-21T03:48:48.656Z,73.10
2018-03-21T03:51:19.299Z,72.85
2018-03-21T03:53:50.159Z,73.38
2018-03-21T03:56:20.752Z,73.49
2018-03-21T03:58:51.407Z,73.06
2018-03-21T04:01:22.047Z,73.53
2018-03-21T04:03:52.659Z,73.07
2018-03-21T04:06:23.293Z,73.33
2018-03-21T04:08:54.771Z,73.33
2018-03-21T04:11:25.379Z,73.26
2018-03-21T04:13:56.003Z,73.49
2018-03-21T04:16:26.620Z,73.02
2018-03-21T04:21:45.447Z,73.82
2018-03-21T04:24:16.332Z,73.98
2018-03-21T04:26:52.671Z,74.28
2018-03-21T04:29:28.187Z,73.98
2018-03-21T04:31:58.850Z,74.08
2018-03-21T04:34:29.450Z,74.49
2018-03-21T04:37:12.300Z,74.84
2018-03-21T04:39:42.920Z,74.87
2018-03-21T04:42:13.601Z,74.79
2018-03-21T04:44:47.136Z,74.77
2018-03-21T04:47:19.125Z,75.34
2018-03-21T04:49:51.207Z,75.89
2018-03-21T04:52:22.283Z,76.10
2018-03-21T04:54:55.454Z,76.03
2018-03-21T04:57:26.576Z,75.87
2018-03-21T04:59:57.656Z,76.08
2018-03-21T05:02:28.441Z,75.63
2018-03-21T05:04:59.172Z,76.25
2018-03-21T05:07:29.754Z,76.60
2018-03-21T05:10:01.290Z,76.90
2018-03-21T05:12:31.989Z,76.78
2018-03-21T05:15:02.567Z,77.14
2018-03-21T05:17:33.188Z,76.88
2018-03-21T05:20:04.224Z,76.98
2018-03-21T05:22:34.766Z,76.81
2018-03-21T05:25:07.022Z,76.95
2018-03-21T05:27:37.754Z,77.26
2018-03-21T05:30:10.130Z,77.23
2018-03-21T05:32:40.800Z,77.62
2018-03-21T05:35:12.338Z,77.47
2018-03-21T05:37:44.278Z,77.76
2018-03-21T05:40:15.183Z,77.85
2018-03-21T05:42:45.793Z,77.97
2018-03-21T05:45:16.319Z,77.58
2018-03-21T05:47:47.357Z,77.56
2018-03-21T05:50:22.965Z,77.51
2018-03-21T05:52:53.456Z,77.96
2018-03-21T05:55:24.433Z,78.16
2018-03-21T05:57:55.023Z,78.36
2018-03-21T06:00:25.539Z,78.19
2018-03-21T06:03:01.222Z,77.53
2018-03-21T06:05:32.030Z,78.01
2018-03-21T06:08:02.641Z,78.42
2018-03-21T06:10:38.098Z,77.84
2018-03-21T06:13:10.442Z,78.07
2018-03-21T06:15:41.231Z,78.48
2018-03-21T06:18:12.200Z,78.20
2018-03-21T06:20:42.775Z,78.30
2018-03-21T06:23:13.355Z,77.69
2018-03-21T06:25:47.830Z,77.20
2018-03-21T06:28:18.511Z,77.11
2018-03-21T06:30:49.218Z,77.14
2018-03-21T06:33:20.319Z,77.34
2018-03-21T06:35:50.873Z,77.02
2018-03-21T06:38:21.382Z,77.03
2018-03-21T06:40:52.308Z,76.58
2018-03-21T06:43:22.908Z,76.71
2018-03-21T06:46:00.997Z,76.23
2018-03-21T06:48:31.902Z,76.47
2018-03-21T06:51:02.566Z,76.66
2018-03-21T06:53:33.158Z,76.20
2018-03-21T06:56:04.161Z,75.87
2018-03-21T06:58:34.861Z,75.17
2018-03-21T07:01:05.510Z,74.00
2018-03-21T07:03:36.748Z,72.53
2018-03-21T07:06:07.413Z,71.57
2018-03-21T07:08:38.202Z,71.43
2018-03-21T07:11:09.218Z,70.35
2018-03-21T07:13:48.114Z,70.26
2018-03-21T07:16:28.960Z,70.84
2018-03-21T07:18:59.916Z,70.07
2018-03-21T07:21:32.949Z,69.86
2018-03-21T07:24:03.636Z,69.46
2018-03-21T07:26:35.136Z,68.98
2018-03-21T07:29:05.879Z,66.36
2018-03-21T07:31:36.651Z,65.75
2018-03-21T07:34:07.622Z,63.51
2018-03-21T07:36:40.039Z,62.36
2018-03-21T07:39:10.127Z,59.15
2018-03-21T07:41:40.736Z,57.74
2018-03-21T07:44:11.402Z,56.22
2018-03-21T07:46:42.612Z,52.10
2018-03-21T07:49:13.360Z,50.48
2018-03-21T07:51:43.972Z,49.22
2018-03-21T07:54:14.559Z,49.81
2018-03-21T07:56:45.655Z,45.25
2018-03-21T07:59:16.491Z,48.81
2018-03-21T08:01:47.250Z,48.23
2018-03-21T08:04:18.782Z,47.87
2018-03-21T08:06:49.454Z,45.56
2018-03-21T08:09:20.340Z,40.83
2018-03-21T08:11:53.303Z,41.40
2018-03-21T08:14:23.928Z,39.37
2018-03-21T08:16:54.523Z,40.27
2018-03-21T08:19:26.796Z,40.68
2018-03-21T08:21:57.390Z,38.28
2018-03-21T08:24:28.199Z,37.86
2018-03-21T08:27:00.492Z,36.68
2018-03-21T08:29:31.303Z,34.27
2018-03-21T08:32:02.295Z,34.49
2018-03-21T08:37:20.202Z,39.28
2018-03-21T08:39:54.506Z,40.51
2018-03-21T08:42:25.462Z,39.62
2018-03-21T08:44:56.332Z,41.83
2018-03-21T08:47:30.360Z,37.59
2018-03-21T08:50:01.184Z,41.15
2018-03-21T08:52:31.882Z,38.98
2018-03-21T08:55:02.732Z,36.94
2018-03-21T08:57:33.819Z,35.99
2018-03-21T09:00:04.646Z,35.91
2018-03-21T09:02:35.296Z,34.57
2018-03-21T09:05:07.672Z,31.97
2018-03-21T09:07:39.652Z,33.29
2018-03-21T09:10:11.012Z,33.14
2018-03-21T09:12:42.109Z,29.24
2018-03-21T09:15:14.424Z,28.14
2018-03-21T09:17:46.480Z,31.52
2018-03-21T09:20:17.166Z,32.81
2018-03-21T09:22:47.830Z,32.52
2018-03-21T09:25:18.602Z,35.18
2018-03-21T09:27:49.675Z,39.93
2018-03-21T09:30:20.451Z,39.36
2018-03-21T09:32:51.034Z,40.81
2018-03-21T09:35:25.194Z,38.88
2018-03-21T09:37:56.006Z,38.20
2018-03-21T09:40:26.945Z,38.24
2018-03-21T09:42:58.495Z,39.44
2018-03-21T09:45:29.115Z,39.07
2018-03-21T09:47:59.727Z,37.81
2018-03-21T09:50:30.556Z,36.71
2018-03-21T09:53:01.310Z,33.67
2018-03-21T09:55:32.231Z,34.56
2018-03-21T09:58:02.843Z,36.23
2018-03-21T10:00:33.488Z,35.31
2018-03-21T10:03:04.483Z,35.72
2018-03-21T10:05:35.302Z,32.63
2018-03-21T10:08:05.907Z,31.40
2018-03-21T10:10:36.954Z,31.88
2018-03-21T10:13:07.810Z,33.87
2018-03-21T10:15:38.572Z,33.50
2018-03-21T10:18:09.623Z,33.29
2018-03-21T10:20:40.414Z,34.56
2018-03-21T10:23:11.289Z,33.43
2018-03-21T10:25:43.428Z,33.91
2018-03-21T10:28:14.160Z,32.01
2018-03-21T10:30:44.804Z,32.40
2018-03-21T10:33:15.744Z,31.02
2018-03-21T10:35:46.558Z,32.29
2018-03-21T10:38:17.688Z,32.33
2018-03-21T10:40:48.723Z,32.86
2018-03-21T10:43:19.717Z,33.74
2018-03-21T10:45:51.008Z,34.22
2018-03-21T10:48:21.776Z,33.66
2018-03-21T10:50:53.119Z,33.49
2018-03-21T10:53:23.848Z,34.16
2018-03-21T10:55:54.710Z,35.73
2018-03-21T10:58:26.040Z,36.50
2018-03-21T11:00:57.035Z,37.41
2018-03-21T11:03:27.964Z,38.32
2018-03-21T11:06:01.866Z,37.89
2018-03-21T11:08:33.952Z,39.36
2018-03-21T11:11:05.264Z,41.42
2018-03-21T11:13:36.729Z,42.29
2018-03-21T11:16:07.832Z,39.84
2018-03-21T11:18:39.509Z,38.91
2018-03-21T11:21:13.835Z,36.73
2018-03-21T11:23:44.824Z,35.85
2018-03-21T11:26:15.567Z,37.65
2018-03-21T11:28:48.154Z,37.28
2018-03-21T11:31:18.816Z,36.71
2018-03-21T11:33:50.179Z,37.56
2018-03-21T11:36:21.397Z,35.93
2018-03-21T11:38:52.080Z,33.87
2018-03-21T11:41:22.908Z,34.63
2018-03-21T11:43:54.892Z,36.03
2018-03-21T11:46:25.568Z,36.29
2018-03-21T11:48:56.202Z,36.31
2018-03-21T11:51:27.164Z,35.95
2018-03-21T11:53:58.046Z,35.60
2018-03-21T11:56:28.631Z,36.08
2018-03-21T11:59:02.360Z,37.69
2018-03-21T12:01:33.344Z,39.65
2018-03-21T12:04:04.061Z,37.86
2018-03-21T12:06:36.943Z,38.10
2018-03-21T12:09:08.010Z,36.94
2018-03-21T12:11:38.757Z,36.40
2018-03-21T12:14:09.695Z,35.90
2018-03-21T12:16:40.372Z,34.04
2018-03-21T12:19:11.212Z,35.22
2018-03-21T12:21:43.654Z,35.78
2018-03-21T12:24:14.573Z,36.21
2018-03-21T12:26:45.422Z,34.33
2018-03-21T12:29:18.682Z,36.30
2018-03-21T12:31:49.672Z,38.15
2018-03-21T12:34:20.603Z,39.08
2018-03-21T12:36:51.787Z,39.96
2018-03-21T12:39:22.770Z,39.10
2018-03-21T12:41:53.600Z,37.51
2018-03-21T12:44:24.696Z,37.05
2018-03-21T12:46:55.576Z,38.00
2018-03-21T12:49:26.120Z,38.08
2018-03-21T12:51:58.719Z,39.00
2018-03-21T12:54:29.600Z,37.61
2018-03-21T12:57:00.564Z,35.38
2018-03-21T12:59:31.463Z,35.95
2018-03-21T13:02:02.201Z,37.07
2018-03-21T13:04:49.899Z,38.44
2018-03-21T13:07:20.544Z,37.75
2018-03-21T13:09:51.246Z,35.74
2018-03-21T13:12:25.928Z,34.53
2018-03-21T13:14:56.896Z,32.94
2018-03-21T13:17:27.783Z,33.66
2018-03-21T13:20:00.564Z,34.12
2018-03-21T13:22:32.555Z,34.45
2018-03-21T13:25:03.901Z,33.81
2018-03-21T13:27:34.980Z,32.57
2018-03-21T13:30:06.798Z,32.59
2018-03-21T13:35:30.035Z,31.44
2018-03-21T13:38:01.664Z,31.74
2018-03-21T13:40:32.622Z,31.65
2018-03-21T13:43:03.492Z,32.18
2018-03-21T13:45:34.256Z,31.90
2018-03-21T13:48:06.292Z,32.06
2018-03-21T13:50:37.067Z,31.79
2018-03-21T13:53:07.264Z,32.34
2018-03-21T13:55:39.935Z,32.33
2018-03-21T13:58:10.840Z,32.02
2018-03-21T14:00:41.701Z,29.32
2018-03-21T14:03:14.340Z,29.30
2018-03-21T14:05:44.916Z,28.60
2018-03-21T14:08:15.504Z,26.88
2018-03-21T14:10:46.407Z,27.63
2018-03-21T14:13:17.448Z,24.49
2018-03-21T14:15:49.000Z,23.04
2018-03-21T14:18:19.888Z,23.36
2018-03-21T14:20:50.673Z,23.15
2018-03-21T14:23:22.300Z,21.95
2018-03-21T14:25:53.306Z,19.09
2018-03-21T14:28:23.931Z,18.94
2018-03-21T14:30:56.107Z,20.27
2018-03-21T14:33:28.090Z,20.32
2018-03-21T14:35:59.045Z,19.88
2018-03-21T14:38:29.750Z,22.13
2018-03-21T14:41:00.376Z,21.23
2018-03-21T14:43:38.084Z,23.14
2018-03-21T14:46:08.744Z,21.34
2018-03-21T14:48:39.340Z,20.11
2018-03-21T14:51:13.380Z,21.78
2018-03-21T14:53:44.224Z,21.50
2018-03-21T14:56:14.940Z,21.07
2018-03-21T14:58:47.214Z,22.03
2018-03-21T15:01:17.836Z,22.08
2018-03-21T15:03:48.636Z,22.25
2018-03-21T15:06:19.708Z,21.68
2018-03-21T15:08:51.149Z,20.94
2018-03-21T15:11:22.248Z,19.63
2018-03-21T15:13:52.946Z,19.58
2018-03-21T15:16:24.243Z,19.58
2018-03-21T15:18:55.151Z,19.04
2018-03-21T15:21:26.972Z,19.02
2018-03-21T15:23:57.755Z,19.08
2018-03-21T15:26:28.540Z,19.66
2018-03-21T15:28:59.563Z,18.95
2018-03-21T15:31:31.432Z,20.29
2018-03-21T15:34:02.460Z,18.91
2018-03-21T15:36:33.399Z,17.95
2018-03-21T15:39:08.171Z,18.38
2018-03-21T15:41:38.875Z,19.39
2018-03-21T15:44:09.968Z,20.55
2018-03-21T15:46:42.043Z,18.92
2018-03-21T15:49:12.870Z,18.51
2018-03-21T15:51:43.814Z,18.00
2018-03-21T15:54:16.033Z,18.90
2018-03-21T15:56:46.900Z,20.88
2018-03-21T15:59:17.579Z,20.84
2018-03-21T16:01:50.932Z,19.29
2018-03-21T16:04:21.603Z,21.98
2018-03-21T16:06:52.935Z,21.75
2018-03-21T16:09:26.333Z,22.39
2018-03-21T16:11:57.170Z,21.55
2018-03-21T16:14:29.288Z,22.39
2018-03-21T16:16:59.930Z,21.91
2018-03-21T16:19:30.736Z,23.30
2018-03-21T16:22:01.988Z,22.39
2018-03-21T16:24:32.595Z,23.19
2018-03-21T16:27:04.064Z,24.25
2018-03-21T16:29:36.390Z,24.03
2018-03-21T16:32:07.158Z,27.31
2018-03-21T16:34:37.933Z,25.79
2018-03-21T16:37:12.735Z,25.00
2018-03-21T16:39:43.403Z,25.06
2018-03-21T16:42:14.103Z,26.51
2018-03-21T16:44:53.227Z,26.66
2018-03-21T16:47:23.875Z,27.57
2018-03-21T16:49:55.385Z,25.84
2018-03-21T16:52:26.019Z,26.65
2018-03-21T16:54:56.658Z,25.96
2018-03-21T16:57:27.854Z,26.48
2018-03-21T16:59:58.562Z,29.80
2018-03-21T17:02:30.216Z,30.61
2018-03-21T17:05:01.373Z,28.56
2018-03-21T17:07:32.120Z,29.31
2018-03-21T17:10:02.944Z,30.05
2018-03-21T17:12:35.336Z,30.54
2018-03-21T17:15:06.208Z,28.72
2018-03-21T17:17:37.098Z,28.83
2018-03-21T17:20:09.047Z,29.49
2018-03-21T17:22:39.647Z,32.17
2018-03-21T17:25:12.253Z,29.36
2018-03-21T17:27:43.135Z,29.29
2018-03-21T17:30:14.162Z,34.42
2018-03-21T17:32:45.723Z,28.54
2018-03-21T17:35:16.706Z,36.90
2018-03-21T17:37:48.843Z,31.39
2018-03-21T17:40:19.651Z,32.31
2018-03-21T17:42:50.506Z,33.77
2018-03-21T17:45:21.747Z,34.32
2018-03-21T17:47:52.505Z,36.34
2018-03-21T17:50:23.458Z,36.90
2018-03-21T17:52:54.305Z,36.30
2018-03-21T17:55:25.093Z,38.10
2018-03-21T17:58:00.882Z,38.43
2018-03-21T18:00:31.551Z,39.03
2018-03-21T18:03:02.449Z,39.94
2018-03-21T18:05:33.829Z,36.57
2018-03-21T18:08:04.832Z,39.74
2018-03-21T18:10:35.500Z,40.34
2018-03-21T18:13:08.985Z,41.74
2018-03-21T18:15:40.002Z,40.94
2018-03-21T18:18:11.607Z,41.64
2018-03-21T18:20:43.126Z,40.91
2018-03-21T18:23:14.070Z,42.03
2018-03-21T18:25:45.122Z,41.37
2018-03-21T18:28:18.916Z,41.47
2018-03-21T18:30:49.667Z,41.64
2018-03-21T18:33:21.284Z,42.35
2018-03-21T18:35:53.207Z,42.61
2018-03-21T18:38:24.246Z,42.41
2018-03-21T18:40:54.927Z,43.36
2018-03-21T18:43:27.075Z,43.06
2018-03-21T18:45:58.544Z,43.83
2018-03-21T18:48:32.460Z,44.53
2018-03-21T18:51:09.260Z,43.30
2018-03-21T18:53:47.551Z,44.78
2018-03-21T18:56:19.758Z,45.12
2018-03-21T18:58:50.529Z,46.16
2018-03-21T19:01:21.166Z,46.25
2018-03-21T19:03:54.244Z,46.94
2018-03-21T19:06:25.285Z,46.99
2018-03-21T19:08:59.607Z,45.70
2018-03-21T19:11:32.727Z,45.96
2018-03-21T19:14:03.355Z,45.83
2018-03-21T19:16:34.816Z,44.09
2018-03-21T19:19:08.357Z,44.83
2018-03-21T19:21:39.152Z,44.54
2018-03-21T19:24:10.089Z,42.56
2018-03-21T19:26:41.182Z,42.80
2018-03-21T19:29:12.095Z,43.14
2018-03-21T19:31:42.734Z,43.52
2018-03-21T19:34:13.807Z,42.43
2018-03-21T19:36:44.486Z,43.25
2018-03-21T19:39:15.808Z,43.27
2018-03-21T19:41:46.656Z,43.66
2018-03-21T19:44:17.741Z,44.92
2018-03-21T19:46:51.509Z,45.63
2018-03-21T19:49:22.794Z,46.73
2018-03-21T19:51:54.773Z,48.17
2018-03-21T19:54:26.328Z,47.45
2018-03-21T19:56:57.115Z,46.60
2018-03-21T19:59:28.026Z,47.28
2018-03-21T20:01:59.112Z,45.74
2018-03-21T20:04:29.836Z,45.00
2018-03-21T20:07:03.328Z,45.09
2018-03-21T20:09:34.051Z,45.76
2018-03-21T20:12:05.333Z,46.06
2018-03-21T20:14:36.290Z,45.31
2018-03-21T20:17:07.093Z,47.20
2018-03-21T20:19:37.760Z,49.01
2018-03-21T20:22:09.442Z,48.30
2018-03-21T20:24:40.096Z,48.33
2018-03-21T20:27:10.734Z,47.67
2018-03-21T20:29:44.874Z,48.27
2018-03-21T20:32:15.784Z,48.29
2018-03-21T20:34:46.774Z,49.04
2018-03-21T20:37:17.440Z,48.36
2018-03-21T20:39:48.010Z,49.29
2018-03-21T20:42:23.988Z,50.82
2018-03-21T20:44:54.674Z,51.30
2018-03-21T20:47:25.905Z,52.61
2018-03-21T20:49:57.236Z,52.48
2018-03-21T20:52:28.056Z,54.02
2018-03-21T20:54:59.663Z,53.59
2018-03-21T20:57:37.690Z,52.80
2018-03-21T21:00:12.271Z,52.43
2018-03-21T21:02:44.274Z,53.28
2018-03-21T21:05:15.000Z,52.68
2018-03-21T21:07:46.037Z,52.87
2018-03-21T21:10:18.315Z,52.93
2018-03-21T21:12:49.122Z,54.01
2018-03-21T21:15:19.776Z,54.09
2018-03-21T21:17:50.870Z,54.24
2018-03-21T21:20:21.855Z,55.04
2018-03-21T21:22:52.653Z,55.30
2018-03-21T21:25:23.713Z,55.77
2018-03-21T21:27:54.437Z,55.97
2018-03-21T21:30:25.020Z,57.49
2018-03-21T21:32:55.942Z,57.35
2018-03-21T21:35:26.593Z,56.87
2018-03-21T21:37:57.200Z,57.21
2018-03-21T21:40:28.297Z,57.61
2018-03-21T21:42:59.203Z,57.49
2018-03-21T21:45:30.055Z,57.23
2018-03-21T21:48:04.015Z,57.61
2018-03-21T21:50:34.682Z,57.84
2018-03-21T21:53:05.658Z,57.88
2018-03-21T21:55:37.464Z,58.42
2018-03-21T21:58:08.191Z,58.60
2018-03-21T22:00:40.514Z,59.05
2018-03-21T22:03:11.102Z,58.89
2018-03-21T22:05:41.563Z,59.21
2018-03-21T22:08:12.286Z,60.01
2018-03-21T22:10:43.118Z,59.20
2018-03-21T22:13:15.344Z,59.75
2018-03-21T22:15:46.241Z,59.94
2018-03-21T22:18:18.166Z,59.78
2018-03-21T22:20:49.311Z,59.71
2018-03-21T22:23:20.715Z,59.71
2018-03-21T22:25:51.213Z,59.90
2018-03-21T22:28:21.837Z,59.94
2018-03-21T22:30:52.605Z,60.14
2018-03-21T22:33:23.587Z,61.13
2018-03-21T22:35:54.465Z,60.70
2018-03-21T22:38:25.039Z,61.06
2018-03-21T22:40:58.243Z,61.22
2018-03-21T22:43:28.979Z,61.75
2018-03-21T22:46:00.509Z,61.57
2018-03-21T22:48:32.517Z,61.18
2018-03-21T22:51:03.355Z,61.56
2018-03-21T22:53:34.136Z,61.69
2018-03-21T22:56:07.235Z,62.02
2018-03-21T22:58:37.914Z,62.45
2018-03-21T23:01:08.748Z,61.96
2018-03-21T23:03:45.159Z,62.22
2018-03-21T23:06:15.749Z,62.30
2018-03-21T23:08:48.723Z,62.25
2018-03-21T23:11:19.898Z,63.31
2018-03-21T23:13:50.553Z,62.95
2018-03-21T23:16:21.339Z,63.39
2018-03-21T23:18:51.898Z,62.95
2018-03-21T23:21:22.593Z,62.42
2018-03-21T23:23:53.516Z,61.49
2018-03-21T23:26:24.060Z,61.83
2018-03-21T23:28:54.663Z,62.20
2018-03-21T23:31:25.567Z,63.39
2018-03-21T23:33:56.396Z,63.72
2018-03-21T23:36:27.101Z,63.16
2018-03-21T23:38:57.978Z,62.74
2018-03-21T23:41:28.697Z,63.54
2018-03-21T23:44:00.275Z,63.09
2018-03-21T23:46:30.825Z,63.72
2018-03-21T23:49:01.574Z,63.36
2018-03-21T23:51:32.045Z,62.98
2018-03-21T23:54:02.589Z,63.14
2018-03-21T23:56:33.664Z,62.81
2018-03-21T23:59:04.457Z,63.26
